sensor_id;sensor_type;location;lat;lon;timestamp;pressure;altitude;pressure_sealevel;temperature;humidity
9249;BME280;4660;41.768;26.198;2023-06-14T00:01:44;100494.91;;;21.84;100.00
9249;BME280;4660;41.768;26.198;2023-06-14T00:04:11;100502.28;;;21.83;100.00
9249;BME280;4660;41.768;26.198;2023-06-14T00:06:37;100492.22;;;21.70;100.00
9249;BME280;4660;41.768;26.198;2023-06-14T00:09:03;100501.56;;;21.56;100.00
9249;BME280;4660;41.768;26.198;2023-06-14T00:11:30;100500.81;;;21.36;100.00
9249;BME280;4660;41.768;26.198;2023-06-14T00:13:56;100498.75;;;21.38;100.00
9249;BME280;4660;41.768;26.198;2023-06-14T00:16:23;100491.84;;;21.15;100.00
9249;BME280;4660;41.768;26.198;2023-06-14T00:18:48;100494.78;;;21.14;100.00
9249;BME280;4660;41.768;26.198;2023-06-14T00:21:14;100499.81;;;21.24;100.00
9249;BME280;4660;41.768;26.198;2023-06-14T00:23:40;100493.31;;;21.18;100.00
9249;BME280;4660;41.768;26.198;2023-06-14T00:26:05;100496.09;;;20.98;100.00
9249;BME280;4660;41.768;26.198;2023-06-14T00:28:31;100478.25;;;20.96;100.00
9249;BME280;4660;41.768;26.198;2023-06-14T00:30:56;100482.81;;;21.15;100.00
9249;BME280;4660;41.768;26.198;2023-06-14T00:33:22;100479.63;;;21.18;100.00
9249;BME280;4660;41.768;26.198;2023-06-14T00:35:47;100477.28;;;21.28;100.00
9249;BME280;4660;41.768;26.198;2023-06-14T00:38:13;100469.97;;;21.15;100.00
9249;BME280;4660;41.768;26.198;2023-06-14T00:40:38;100477.53;;;21.13;100.00
9249;BME280;4660;41.768;26.198;2023-06-14T00:43:04;100468.31;;;21.08;100.00
9249;BME280;4660;41.768;26.198;2023-06-14T00:45:29;100477.97;;;21.10;100.00
9249;BME280;4660;41.768;26.198;2023-06-14T00:47:56;100479.69;;;20.98;100.00
9249;BME280;4660;41.768;26.198;2023-06-14T00:50:23;100459.38;;;20.74;100.00
9249;BME280;4660;41.768;26.198;2023-06-14T00:52:49;100460.66;;;20.58;100.00
9249;BME280;4660;41.768;26.198;2023-06-14T00:55:15;100466.97;;;20.52;100.00
9249;BME280;4660;41.768;26.198;2023-06-14T00:57:41;100470.78;;;20.51;100.00
9249;BME280;4660;41.768;26.198;2023-06-14T01:00:07;100467.81;;;20.53;100.00
9249;BME280;4660;41.768;26.198;2023-06-14T01:02:39;100469.50;;;20.47;100.00
9249;BME280;4660;41.768;26.198;2023-06-14T01:05:06;100459.38;;;20.34;100.00
9249;BME280;4660;41.768;26.198;2023-06-14T01:07:46;100464.22;;;20.39;100.00
9249;BME280;4660;41.768;26.198;2023-06-14T01:10:31;100462.34;;;20.40;100.00
9249;BME280;4660;41.768;26.198;2023-06-14T01:15:31;100446.78;;;20.27;100.00
9249;BME280;4660;41.768;26.198;2023-06-14T01:17:57;100439.25;;;20.16;100.00
9249;BME280;4660;41.768;26.198;2023-06-14T01:20:29;100447.22;;;20.24;100.00
9249;BME280;4660;41.768;26.198;2023-06-14T01:22:56;100452.25;;;20.14;100.00
9249;BME280;4660;41.768;26.198;2023-06-14T01:25:22;100448.69;;;20.13;100.00
9249;BME280;4660;41.768;26.198;2023-06-14T01:27:50;100457.31;;;20.17;100.00
9249;BME280;4660;41.768;26.198;2023-06-14T01:30:17;100453.09;;;20.14;100.00
9249;BME280;4660;41.768;26.198;2023-06-14T01:32:43;100454.78;;;20.15;100.00
9249;BME280;4660;41.768;26.198;2023-06-14T01:35:10;100446.59;;;20.22;100.00
9249;BME280;4660;41.768;26.198;2023-06-14T01:37:35;100446.78;;;20.27;100.00
9249;BME280;4660;41.768;26.198;2023-06-14T01:40:04;100446.16;;;20.18;100.00
9249;BME280;4660;41.768;26.198;2023-06-14T01:42:33;100446.59;;;20.22;100.00
9249;BME280;4660;41.768;26.198;2023-06-14T01:45:02;100442.81;;;20.23;100.00
9249;BME280;4660;41.768;26.198;2023-06-14T01:47:27;100436.69;;;20.21;100.00
9249;BME280;4660;41.768;26.198;2023-06-14T01:49:53;100441.31;;;20.33;100.00
9249;BME280;4660;41.768;26.198;2023-06-14T01:52:19;100429.16;;;20.36;100.00
9249;BME280;4660;41.768;26.198;2023-06-14T01:54:44;100437.97;;;20.25;100.00
9249;BME280;4660;41.768;26.198;2023-06-14T01:57:11;100446.78;;;20.07;100.00
9249;BME280;4660;41.768;26.198;2023-06-14T01:59:37;100458.56;;;20.01;100.00
9249;BME280;4660;41.768;26.198;2023-06-14T02:02:03;100446.78;;;20.07;100.00
9249;BME280;4660;41.768;26.198;2023-06-14T02:04:28;100449.34;;;20.02;100.00
9249;BME280;4660;41.768;26.198;2023-06-14T02:06:54;100412.34;;;19.99;100.00
9249;BME280;4660;41.768;26.198;2023-06-14T02:09:19;100453.75;;;20.29;100.00
9249;BME280;4660;41.768;26.198;2023-06-14T02:11:45;100454.38;;;20.31;100.00
9249;BME280;4660;41.768;26.198;2023-06-14T02:14:10;100456.88;;;20.20;100.00
9249;BME280;4660;41.768;26.198;2023-06-14T02:16:37;100450.56;;;20.13;100.00
9249;BME280;4660;41.768;26.198;2023-06-14T02:19:04;100462.78;;;20.17;100.00
9249;BME280;4660;41.768;26.198;2023-06-14T02:21:30;100456.03;;;19.99;100.00
9249;BME280;4660;41.768;26.198;2023-06-14T02:23:56;100452.66;;;19.91;100.00
9249;BME280;4660;41.768;26.198;2023-06-14T02:26:21;100467.38;;;19.83;100.00
9249;BME280;4660;41.768;26.198;2023-06-14T02:28:48;100465.47;;;19.90;100.00
9249;BME280;4660;41.768;26.198;2023-06-14T02:31:14;100463.19;;;19.94;100.00
9249;BME280;4660;41.768;26.198;2023-06-14T02:33:39;100456.03;;;19.73;100.00
9249;BME280;4660;41.768;26.198;2023-06-14T02:36:06;100471.97;;;19.69;100.00
9249;BME280;4660;41.768;26.198;2023-06-14T02:38:31;100471.06;;;19.56;100.00
9249;BME280;4660;41.768;26.198;2023-06-14T02:40:57;100422.06;;;19.21;100.00
9249;BME280;4660;41.768;26.198;2023-06-14T02:43:24;100467.25;;;19.50;100.00
9249;BME280;4660;41.768;26.198;2023-06-14T02:45:50;100470.38;;;19.40;100.00
9249;BME280;4660;41.768;26.198;2023-06-14T02:48:15;100456.09;;;19.32;100.00
9249;BME280;4660;41.768;26.198;2023-06-14T02:50:41;100475.59;;;19.35;100.00
9249;BME280;4660;41.768;26.198;2023-06-14T02:53:07;100471.44;;;19.39;100.00
9249;BME280;4660;41.768;26.198;2023-06-14T02:55:33;100478.16;;;19.37;100.00
9249;BME280;4660;41.768;26.198;2023-06-14T02:57:58;100485.25;;;19.31;100.00
9249;BME280;4660;41.768;26.198;2023-06-14T03:00:24;100475.56;;;19.29;100.00
9249;BME280;4660;41.768;26.198;2023-06-14T03:02:50;100478.19;;;19.43;100.00
9249;BME280;4660;41.768;26.198;2023-06-14T03:05:16;100479.44;;;19.47;100.00
9249;BME280;4660;41.768;26.198;2023-06-14T03:07:45;100485.97;;;19.53;100.00
9249;BME280;4660;41.768;26.198;2023-06-14T03:10:12;100485.91;;;19.40;100.00
9249;BME280;4660;41.768;26.198;2023-06-14T03:12:38;100493.22;;;19.33;100.00
9249;BME280;4660;41.768;26.198;2023-06-14T03:15:04;100482.38;;;19.46;100.00
9249;BME280;4660;41.768;26.198;2023-06-14T03:17:30;100478.72;;;19.25;100.00
9249;BME280;4660;41.768;26.198;2023-06-14T03:19:59;100493.25;;;19.39;100.00
9249;BME280;4660;41.768;26.198;2023-06-14T03:22:25;100493.88;;;19.41;100.00
9249;BME280;4660;41.768;26.198;2023-06-14T03:24:51;100483.03;;;19.55;100.00
9249;BME280;4660;41.768;26.198;2023-06-14T03:27:17;100464.31;;;19.45;100.00
9249;BME280;4660;41.768;26.198;2023-06-14T03:29:44;100488.25;;;19.49;100.00
9249;BME280;4660;41.768;26.198;2023-06-14T03:32:09;100481.94;;;19.42;100.00
9249;BME280;4660;41.768;26.198;2023-06-14T03:34:35;100497.41;;;19.29;100.00
9249;BME280;4660;41.768;26.198;2023-06-14T03:37:00;100491.75;;;19.30;100.00
9249;BME280;4660;41.768;26.198;2023-06-14T03:39:26;100500.59;;;19.39;100.00
9249;BME280;4660;41.768;26.198;2023-06-14T03:41:52;100491.94;;;19.29;100.00
9249;BME280;4660;41.768;26.198;2023-06-14T03:44:18;100483.13;;;19.27;100.00
9249;BME280;4660;41.768;26.198;2023-06-14T03:46:45;100499.78;;;19.45;100.00
9249;BME280;4660;41.768;26.198;2023-06-14T03:49:11;100476.28;;;19.44;100.00
9249;BME280;4660;41.768;26.198;2023-06-14T03:51:36;100483.66;;;19.57;100.00
9249;BME280;4660;41.768;26.198;2023-06-14T03:54:02;100499.69;;;19.66;100.00
9249;BME280;4660;41.768;26.198;2023-06-14T03:56:28;100488.34;;;19.69;100.00
9249;BME280;4660;41.768;26.198;2023-06-14T03:58:53;100495.81;;;19.54;100.00
9249;BME280;4660;41.768;26.198;2023-06-14T04:01:18;100490.53;;;19.39;100.00
9249;BME280;4660;41.768;26.198;2023-06-14T04:03:44;100494.63;;;19.63;100.00
9249;BME280;4660;41.768;26.198;2023-06-14T04:06:10;100492.53;;;19.65;100.00
9249;BME280;4660;41.768;26.198;2023-06-14T04:08:35;100491.47;;;19.60;100.00
9249;BME280;4660;41.768;26.198;2023-06-14T04:11:01;100507.66;;;19.68;100.00
9249;BME280;4660;41.768;26.198;2023-06-14T04:13:26;100500.50;;;19.67;100.00
9249;BME280;4660;41.768;26.198;2023-06-14T04:15:52;100500.38;;;19.40;100.00
9249;BME280;4660;41.768;26.198;2023-06-14T04:18:18;100501.06;;;19.56;100.00
9249;BME280;4660;41.768;26.198;2023-06-14T04:20:45;100525.28;;;19.59;100.00
9249;BME280;4660;41.768;26.198;2023-06-14T04:23:11;100511.03;;;19.76;100.00
9249;BME280;4660;41.768;26.198;2023-06-14T04:25:38;100520.44;;;19.61;100.00
9249;BME280;4660;41.768;26.198;2023-06-14T04:28:03;100524.31;;;19.86;100.00
9249;BME280;4660;41.768;26.198;2023-06-14T04:30:29;100515.25;;;19.86;100.00
9249;BME280;4660;41.768;26.198;2023-06-14T04:32:57;100530.16;;;19.83;100.00
9249;BME280;4660;41.768;26.198;2023-06-14T04:35:22;100527.44;;;19.83;100.00
9249;BME280;4660;41.768;26.198;2023-06-14T04:37:52;100520.09;;;19.90;100.00
9249;BME280;4660;41.768;26.198;2023-06-14T04:40:18;100527.06;;;20.13;100.00
9249;BME280;4660;41.768;26.198;2023-06-14T04:42:44;100536.72;;;20.42;100.00
9249;BME280;4660;41.768;26.198;2023-06-14T04:45:10;100533.41;;;20.59;100.00
9249;BME280;4660;41.768;26.198;2023-06-14T04:47:36;100548.13;;;20.58;100.00
9249;BME280;4660;41.768;26.198;2023-06-14T04:50:03;100544.75;;;20.50;100.00
9249;BME280;4660;41.768;26.198;2023-06-14T04:52:29;100551.50;;;20.74;100.00
9249;BME280;4660;41.768;26.198;2023-06-14T04:54:55;100554.44;;;20.79;100.00
9249;BME280;4660;41.768;26.198;2023-06-14T04:57:21;100552.75;;;20.65;100.00
9249;BME280;4660;41.768;26.198;2023-06-14T04:59:48;100562.00;;;20.77;100.00
9249;BME280;4660;41.768;26.198;2023-06-14T05:02:14;100562.00;;;20.77;100.00
9249;BME280;4660;41.768;26.198;2023-06-14T05:04:39;100535.09;;;20.74;100.00
9249;BME280;4660;41.768;26.198;2023-06-14T05:07:08;100550.59;;;20.93;100.00
9249;BME280;4660;41.768;26.198;2023-06-14T05:09:35;100575.41;;;20.98;100.00
9249;BME280;4660;41.768;26.198;2023-06-14T05:12:01;100558.81;;;20.93;100.00
9249;BME280;4660;41.768;26.198;2023-06-14T05:14:27;100569.75;;;20.93;100.00
9249;BME280;4660;41.768;26.198;2023-06-14T05:16:52;100569.78;;;20.80;100.00
9249;BME280;4660;41.768;26.198;2023-06-14T05:19:19;100573.75;;;20.91;100.00
9249;BME280;4660;41.768;26.198;2023-06-14T05:21:46;100575.84;;;21.08;100.00
9249;BME280;4660;41.768;26.198;2023-06-14T05:24:13;100596.84;;;21.28;100.00
9249;BME280;4660;41.768;26.198;2023-06-14T05:26:39;100582.53;;;21.26;100.00
9249;BME280;4660;41.768;26.198;2023-06-14T05:29:04;100597.66;;;21.48;100.00
9249;BME280;4660;41.768;26.198;2023-06-14T05:31:30;100598.84;;;21.65;100.00
9249;BME280;4660;41.768;26.198;2023-06-14T05:33:56;100588.34;;;21.56;100.00
9249;BME280;4660;41.768;26.198;2023-06-14T05:36:21;100611.25;;;21.75;100.00
9249;BME280;4660;41.768;26.198;2023-06-14T05:38:47;100606.50;;;21.95;100.00
9249;BME280;4660;41.768;26.198;2023-06-14T05:41:13;100603.28;;;22.11;100.00
9249;BME280;4660;41.768;26.198;2023-06-14T05:43:38;100606.59;;;22.20;100.00
9249;BME280;4660;41.768;26.198;2023-06-14T05:46:04;100599.84;;;22.22;100.00
9249;BME280;4660;41.768;26.198;2023-06-14T05:48:30;100593.13;;;22.18;100.00
9249;BME280;4660;41.768;26.198;2023-06-14T05:50:56;100581.84;;;21.95;100.00
9249;BME280;4660;41.768;26.198;2023-06-14T05:53:22;100605.38;;;22.16;100.00
9249;BME280;4660;41.768;26.198;2023-06-14T05:55:49;100606.75;;;22.32;100.00
9249;BME280;4660;41.768;26.198;2023-06-14T05:58:15;100600.25;;;22.26;100.00
9249;BME280;4660;41.768;26.198;2023-06-14T06:00:41;100601.78;;;22.47;100.00
9249;BME280;4660;41.768;26.198;2023-06-14T06:03:06;100583.31;;;22.61;100.00
9249;BME280;4660;41.768;26.198;2023-06-14T06:05:36;100617.50;;;22.90;100.00
9249;BME280;4660;41.768;26.198;2023-06-14T06:08:02;100622.53;;;22.93;100.00
9249;BME280;4660;41.768;26.198;2023-06-14T06:10:27;100631.22;;;22.90;100.00
9249;BME280;4660;41.768;26.198;2023-06-14T06:12:53;100610.59;;;22.80;100.00
9249;BME280;4660;41.768;26.198;2023-06-14T06:15:20;100610.34;;;23.07;100.00
9249;BME280;4660;41.768;26.198;2023-06-14T06:17:45;100628.16;;;23.23;100.00
9249;BME280;4660;41.768;26.198;2023-06-14T06:20:11;100632.09;;;23.52;100.00
9249;BME280;4660;41.768;26.198;2023-06-14T06:22:37;100619.22;;;23.27;100.00
9249;BME280;4660;41.768;26.198;2023-06-14T06:25:03;100623.81;;;23.15;100.00
9249;BME280;4660;41.768;26.198;2023-06-14T06:27:29;100627.94;;;23.43;100.00
9249;BME280;4660;41.768;26.198;2023-06-14T06:29:55;100620.03;;;23.53;100.00
9249;BME280;4660;41.768;26.198;2023-06-14T06:32:21;100614.09;;;23.74;100.00
9249;BME280;4660;41.768;26.198;2023-06-14T06:34:47;100605.53;;;23.64;100.00
9249;BME280;4660;41.768;26.198;2023-06-14T06:37:13;100604.13;;;23.92;100.00
9249;BME280;4660;41.768;26.198;2023-06-14T06:39:38;100628.78;;;23.98;100.00
9249;BME280;4660;41.768;26.198;2023-06-14T06:42:04;100626.75;;;23.75;100.00
9249;BME280;4660;41.768;26.198;2023-06-14T06:44:30;100629.28;;;24.07;100.00
9249;BME280;4660;41.768;26.198;2023-06-14T06:46:57;100628.13;;;24.33;100.00
9249;BME280;4660;41.768;26.198;2023-06-14T06:49:23;100608.69;;;24.16;100.00
9249;BME280;4660;41.768;26.198;2023-06-14T06:52:02;100624.28;;;24.34;100.00
9249;BME280;4660;41.768;26.198;2023-06-14T06:54:28;100615.59;;;24.49;100.00
9249;BME280;4660;41.768;26.198;2023-06-14T06:56:54;100620.91;;;24.62;100.00
9249;BME280;4660;41.768;26.198;2023-06-14T06:59:21;100618.44;;;24.72;100.00
9249;BME280;4660;41.768;26.198;2023-06-14T07:01:46;100607.28;;;24.79;100.00
9249;BME280;4660;41.768;26.198;2023-06-14T07:04:12;100599.75;;;24.86;100.00
9249;BME280;4660;41.768;26.198;2023-06-14T07:06:38;100603.25;;;24.81;100.00
9249;BME280;4660;41.768;26.198;2023-06-14T07:09:04;100610.69;;;25.04;100.00
9249;BME280;4660;41.768;26.198;2023-06-14T07:11:33;100621.47;;;25.29;100.00
9249;BME280;4660;41.768;26.198;2023-06-14T07:13:59;100613.31;;;25.11;100.00
9249;BME280;4660;41.768;26.198;2023-06-14T07:16:25;100620.59;;;24.82;100.00
9249;BME280;4660;41.768;26.198;2023-06-14T07:18:51;100612.69;;;24.74;100.00
9249;BME280;4660;41.768;26.198;2023-06-14T07:21:17;100623.47;;;24.87;100.00
9249;BME280;4660;41.768;26.198;2023-06-14T07:23:43;100618.56;;;25.01;100.00
9249;BME280;4660;41.768;26.198;2023-06-14T07:26:09;100607.94;;;25.16;100.00
9249;BME280;4660;41.768;26.198;2023-06-14T07:28:34;100618.56;;;25.47;99.58
9249;BME280;4660;41.768;26.198;2023-06-14T07:31:01;100609.97;;;25.32;99.03
9249;BME280;4660;41.768;26.198;2023-06-14T07:33:26;100603.94;;;25.59;98.84
9249;BME280;4660;41.768;26.198;2023-06-14T07:35:52;100599.22;;;25.83;97.28
9249;BME280;4660;41.768;26.198;2023-06-14T07:38:18;100586.16;;;25.78;97.39
9249;BME280;4660;41.768;26.198;2023-06-14T07:40:43;100611.00;;;26.06;96.79
9249;BME280;4660;41.768;26.198;2023-06-14T07:43:09;100600.78;;;26.07;95.24
9249;BME280;4660;41.768;26.198;2023-06-14T07:45:36;100602.72;;;26.06;95.90
9249;BME280;4660;41.768;26.198;2023-06-14T07:48:01;100602.50;;;26.08;95.88
9249;BME280;4660;41.768;26.198;2023-06-14T07:50:27;100606.97;;;25.97;96.50
9249;BME280;4660;41.768;26.198;2023-06-14T07:52:54;100606.13;;;25.97;96.78
9249;BME280;4660;41.768;26.198;2023-06-14T07:55:21;100611.50;;;26.03;96.08
9249;BME280;4660;41.768;26.198;2023-06-14T07:57:46;100608.13;;;25.73;96.50
9249;BME280;4660;41.768;26.198;2023-06-14T08:03:01;100600.47;;;26.03;94.28
9249;BME280;4660;41.768;26.198;2023-06-14T08:05:27;100590.22;;;25.87;94.62
9249;BME280;4660;41.768;26.198;2023-06-14T08:07:55;100584.31;;;25.95;93.95
9249;BME280;4660;41.768;26.198;2023-06-14T08:10:21;100607.34;;;25.89;94.01
9249;BME280;4660;41.768;26.198;2023-06-14T08:12:47;100606.84;;;25.92;93.65
9249;BME280;4660;41.768;26.198;2023-06-14T08:15:13;100582.72;;;25.99;93.21
9249;BME280;4660;41.768;26.198;2023-06-14T08:17:39;100585.03;;;26.19;93.60
9249;BME280;4660;41.768;26.198;2023-06-14T08:20:06;100592.72;;;26.17;91.26
9249;BME280;4660;41.768;26.198;2023-06-14T08:22:33;100587.38;;;26.11;91.52
9249;BME280;4660;41.768;26.198;2023-06-14T08:27:37;100597.69;;;26.32;91.72
9249;BME280;4660;41.768;26.198;2023-06-14T08:30:04;100543.94;;;26.18;90.67
9249;BME280;4660;41.768;26.198;2023-06-14T08:32:36;100584.53;;;26.68;89.30
9249;BME280;4660;41.768;26.198;2023-06-14T08:35:11;100504.97;;;26.14;88.39
9249;BME280;4660;41.768;26.198;2023-06-14T08:40:48;100560.78;;;26.50;85.98
9249;BME280;4660;41.768;26.198;2023-06-14T08:43:16;100510.28;;;26.49;86.87
9249;BME280;4660;41.768;26.198;2023-06-14T08:45:42;100543.94;;;27.02;83.94
9249;BME280;4660;41.768;26.198;2023-06-14T08:48:08;100577.66;;;27.64;81.69
9249;BME280;4660;41.768;26.198;2023-06-14T08:50:36;100612.13;;;28.22;80.44
9249;BME280;4660;41.768;26.198;2023-06-14T08:53:08;100584.88;;;28.14;79.39
9249;BME280;4660;41.768;26.198;2023-06-14T08:55:38;100603.59;;;28.29;77.74
9249;BME280;4660;41.768;26.198;2023-06-14T08:58:05;100620.19;;;28.56;74.43
9249;BME280;4660;41.768;26.198;2023-06-14T09:00:30;100628.13;;;28.74;71.77
9249;BME280;4660;41.768;26.198;2023-06-14T09:02:58;100617.84;;;29.02;72.73
9249;BME280;4660;41.768;26.198;2023-06-14T09:05:27;100619.66;;;29.28;70.58
9249;BME280;4660;41.768;26.198;2023-06-14T09:07:54;100623.69;;;29.05;75.56
9249;BME280;4660;41.768;26.198;2023-06-14T09:10:29;100623.34;;;27.89;82.84
9249;BME280;4660;41.768;26.198;2023-06-14T09:13:00;100621.50;;;27.73;83.66
9249;BME280;4660;41.768;26.198;2023-06-14T09:15:25;100635.69;;;27.64;84.06
9249;BME280;4660;41.768;26.198;2023-06-14T09:17:51;100629.03;;;27.22;84.48
9249;BME280;4660;41.768;26.198;2023-06-14T09:20:16;100616.25;;;26.82;84.30
9249;BME280;4660;41.768;26.198;2023-06-14T09:22:45;100628.53;;;26.91;83.86
9249;BME280;4660;41.768;26.198;2023-06-14T09:25:12;100616.56;;;27.02;83.98
9249;BME280;4660;41.768;26.198;2023-06-14T09:27:40;100629.47;;;27.52;81.59
9249;BME280;4660;41.768;26.198;2023-06-14T09:30:10;100625.66;;;27.97;77.02
9249;BME280;4660;41.768;26.198;2023-06-14T09:32:37;100616.59;;;28.02;75.14
9249;BME280;4660;41.768;26.198;2023-06-14T09:35:09;100629.84;;;28.27;74.34
9249;BME280;4660;41.768;26.198;2023-06-14T09:37:35;100631.78;;;28.80;72.24
9249;BME280;4660;41.768;26.198;2023-06-14T09:40:04;100631.50;;;28.82;71.65
9249;BME280;4660;41.768;26.198;2023-06-14T09:42:30;100627.66;;;29.20;70.92
9249;BME280;4660;41.768;26.198;2023-06-14T09:44:59;100617.94;;;29.17;73.00
9249;BME280;4660;41.768;26.198;2023-06-14T09:50:01;100618.91;;;28.96;71.60
9249;BME280;4660;41.768;26.198;2023-06-14T09:52:27;100623.88;;;28.94;71.62
9249;BME280;4660;41.768;26.198;2023-06-14T09:54:54;100621.72;;;28.42;72.35
9249;BME280;4660;41.768;26.198;2023-06-14T09:57:23;100574.09;;;28.13;74.20
9249;BME280;4660;41.768;26.198;2023-06-14T09:59:53;100561.09;;;28.13;74.22
9249;BME280;4660;41.768;26.198;2023-06-14T10:02:28;100617.28;;;28.41;73.39
9249;BME280;4660;41.768;26.198;2023-06-14T10:05:08;100605.47;;;28.23;73.27
9249;BME280;4660;41.768;26.198;2023-06-14T10:07:52;100612.75;;;28.30;73.60
9249;BME280;4660;41.768;26.198;2023-06-14T10:10:18;100599.34;;;28.43;71.33
9249;BME280;4660;41.768;26.198;2023-06-14T10:12:44;100595.94;;;29.00;68.33
9249;BME280;4660;41.768;26.198;2023-06-14T10:15:16;100603.22;;;29.54;66.45
9249;BME280;4660;41.768;26.198;2023-06-14T10:17:50;100607.50;;;29.82;64.90
9249;BME280;4660;41.768;26.198;2023-06-14T10:20:26;100591.59;;;29.62;67.71
9249;BME280;4660;41.768;26.198;2023-06-14T10:23:32;100585.28;;;29.24;66.71
9249;BME280;4660;41.768;26.198;2023-06-14T10:26:01;100592.91;;;28.70;69.61
9249;BME280;4660;41.768;26.198;2023-06-14T10:28:27;100584.81;;;28.63;70.86
9249;BME280;4660;41.768;26.198;2023-06-14T10:31:12;100579.34;;;28.68;70.65
9249;BME280;4660;41.768;26.198;2023-06-14T10:36:29;100590.53;;;28.84;65.42
9249;BME280;4660;41.768;26.198;2023-06-14T10:39:15;100577.63;;;29.37;63.78
9249;BME280;4660;41.768;26.198;2023-06-14T10:41:50;100587.81;;;29.83;62.73
9249;BME280;4660;41.768;26.198;2023-06-14T10:46:48;100571.78;;;30.01;61.02
9249;BME280;4660;41.768;26.198;2023-06-14T10:49:16;100569.34;;;30.20;61.60
9249;BME280;4660;41.768;26.198;2023-06-14T10:51:50;100562.41;;;30.32;59.75
9249;BME280;4660;41.768;26.198;2023-06-14T10:54:17;100562.41;;;30.22;61.51
9249;BME280;4660;41.768;26.198;2023-06-14T10:56:50;100562.34;;;30.02;60.16
9249;BME280;4660;41.768;26.198;2023-06-14T11:04:50;100574.75;;;28.84;66.82
9249;BME280;4660;41.768;26.198;2023-06-14T11:07:48;100554.19;;;28.43;69.67
9249;BME280;4660;41.768;26.198;2023-06-14T11:11:00;100548.22;;;28.51;71.97
9249;BME280;4660;41.768;26.198;2023-06-14T11:13:27;100513.53;;;28.81;68.49
9249;BME280;4660;41.768;26.198;2023-06-14T11:15:55;100556.31;;;29.00;64.68
9249;BME280;4660;41.768;26.198;2023-06-14T11:18:28;100491.91;;;28.77;64.71
9249;BME280;4660;41.768;26.198;2023-06-14T11:20:57;100553.59;;;29.52;63.23
9249;BME280;4660;41.768;26.198;2023-06-14T11:23:23;100443.19;;;28.82;62.31
9249;BME280;4660;41.768;26.198;2023-06-14T11:25:51;100558.78;;;30.11;62.85
9249;BME280;4660;41.768;26.198;2023-06-14T11:28:17;100534.41;;;30.44;58.95
9249;BME280;4660;41.768;26.198;2023-06-14T11:30:50;100495.50;;;30.29;58.50
9249;BME280;4660;41.768;26.198;2023-06-14T11:35:52;100502.19;;;30.18;58.46
9249;BME280;4660;41.768;26.198;2023-06-14T11:38:19;100544.59;;;31.10;56.58
9249;BME280;4660;41.768;26.198;2023-06-14T11:40:47;100552.06;;;31.14;55.94
9249;BME280;4660;41.768;26.198;2023-06-14T11:43:13;100484.88;;;31.02;55.40
9249;BME280;4660;41.768;26.198;2023-06-14T11:45:40;100448.78;;;30.92;53.24
9249;BME280;4660;41.768;26.198;2023-06-14T11:48:09;100480.34;;;31.27;51.90
9249;BME280;4660;41.768;26.198;2023-06-14T11:53:14;100482.25;;;31.36;49.86
9249;BME280;4660;41.768;26.198;2023-06-14T11:55:49;100544.00;;;31.33;51.13
9249;BME280;4660;41.768;26.198;2023-06-14T11:58:16;100450.19;;;30.84;51.90
9249;BME280;4660;41.768;26.198;2023-06-14T12:00:44;100538.44;;;31.28;51.21
9249;BME280;4660;41.768;26.198;2023-06-14T12:03:11;100471.13;;;31.41;51.48
9249;BME280;4660;41.768;26.198;2023-06-14T12:05:40;100538.38;;;32.08;49.24
9249;BME280;4660;41.768;26.198;2023-06-14T12:08:07;100474.09;;;31.55;49.59
9249;BME280;4660;41.768;26.198;2023-06-14T12:13:02;100447.22;;;31.40;50.97
9249;BME280;4660;41.768;26.198;2023-06-14T12:15:28;100480.25;;;31.96;49.83
9249;BME280;4660;41.768;26.198;2023-06-14T12:18:00;100501.78;;;32.83;48.51
9249;BME280;4660;41.768;26.198;2023-06-14T12:20:30;100543.75;;;33.21;45.46
9249;BME280;4660;41.768;26.198;2023-06-14T12:23:03;100438.38;;;31.77;48.16
9249;BME280;4660;41.768;26.198;2023-06-14T12:25:35;100472.63;;;31.68;49.30
9249;BME280;4660;41.768;26.198;2023-06-14T12:28:07;100497.56;;;31.29;51.06
9249;BME280;4660;41.768;26.198;2023-06-14T12:30:41;100503.16;;;31.18;52.55
9249;BME280;4660;41.768;26.198;2023-06-14T12:33:08;100434.69;;;30.42;52.73
9249;BME280;4660;41.768;26.198;2023-06-14T12:35:35;100434.72;;;30.32;53.18
9249;BME280;4660;41.768;26.198;2023-06-14T12:38:01;100529.59;;;31.06;53.08
9249;BME280;4660;41.768;26.198;2023-06-14T12:40:33;100410.34;;;30.09;53.56
9249;BME280;4660;41.768;26.198;2023-06-14T12:43:23;100409.72;;;29.92;58.29
9249;BME280;4660;41.768;26.198;2023-06-14T12:45:53;100443.88;;;30.33;56.04
9249;BME280;4660;41.768;26.198;2023-06-14T12:48:19;100412.22;;;30.29;57.03
9249;BME280;4660;41.768;26.198;2023-06-14T12:50:48;100429.16;;;30.42;57.31
9249;BME280;4660;41.768;26.198;2023-06-14T12:53:15;100499.34;;;30.94;56.97
9249;BME280;4660;41.768;26.198;2023-06-14T12:55:44;100487.06;;;31.15;56.21
9249;BME280;4660;41.768;26.198;2023-06-14T12:58:10;100510.03;;;31.46;52.81
9249;BME280;4660;41.768;26.198;2023-06-14T13:00:53;100434.22;;;31.20;52.56
9249;BME280;4660;41.768;26.198;2023-06-14T13:03:21;100474.19;;;31.35;53.94
9249;BME280;4660;41.768;26.198;2023-06-14T13:05:46;100500.06;;;31.90;49.08
9249;BME280;4660;41.768;26.198;2023-06-14T13:08:12;100507.81;;;31.93;51.02
9249;BME280;4660;41.768;26.198;2023-06-14T13:10:38;100497.66;;;31.68;50.22
9249;BME280;4660;41.768;26.198;2023-06-14T13:13:05;100495.88;;;31.92;49.17
9249;BME280;4660;41.768;26.198;2023-06-14T13:15:32;100500.69;;;31.82;50.48
9249;BME280;4660;41.768;26.198;2023-06-14T13:17:58;100475.66;;;31.12;52.55
9249;BME280;4660;41.768;26.198;2023-06-14T13:20:23;100477.97;;;30.64;54.06
9249;BME280;4660;41.768;26.198;2023-06-14T13:22:54;100478.00;;;30.79;55.47
9249;BME280;4660;41.768;26.198;2023-06-14T13:25:23;100495.41;;;31.10;54.96
9249;BME280;4660;41.768;26.198;2023-06-14T13:27:51;100479.75;;;31.40;53.14
9249;BME280;4660;41.768;26.198;2023-06-14T13:30:23;100490.38;;;31.17;51.60